Time;durP1;ratioP1;P1;durP2;ratioP2;P2;SDS_P1;SDS_P2;PMS_P1;PMS_P2;Temp;Humidity;BMP_temperature;BMP_pressure;BME280_temperature;BME280_humidity;BME280_pressure;Samples;Min_cycle;Max_cycle;Signal;HPM_P1;HPM_P2
2021/09/13 00:00:00;;;;;;;34.80;28.02;;;16.60;99.90;;;;;;5042351;28;20060;-79
2021/09/13 00:02:30;;;;;;;36.08;28.05;;;16.60;99.90;;;;;;5042929;28;20084;-79
2021/09/13 00:04:57;;;;;;;37.97;28.63;;;16.60;99.90;;;;;;5043269;28;20049;-79
2021/09/13 00:07:24;;;;;;;38.75;28.55;;;16.60;99.90;;;;;;5043936;28;20084;-79
2021/09/13 00:09:50;;;;;;;37.17;29.63;;;16.60;99.90;;;;;;5043708;28;20076;-80
2021/09/13 00:12:17;;;;;;;35.08;30.20;;;16.50;99.90;;;;;;5043741;28;20132;-80
2021/09/13 00:14:44;;;;;;;39.80;30.40;;;16.50;99.90;;;;;;5043117;28;20065;-82
2021/09/13 00:17:11;;;;;;;39.67;30.80;;;16.50;99.90;;;;;;5044419;28;20060;-80
2021/09/13 00:19:39;;;;;;;39.92;31.48;;;16.40;99.90;;;;;;5043786;28;20092;-80
2021/09/13 00:22:07;;;;;;;38.92;30.85;;;16.40;99.90;;;;;;5044179;28;20445;-80
2021/09/13 00:24:34;;;;;;;38.72;29.88;;;16.30;99.90;;;;;;5044248;28;20050;-80
2021/09/13 00:27:00;;;;;;;40.50;31.83;;;16.30;99.90;;;;;;5045922;28;20128;-80
2021/09/13 00:29:27;;;;;;;40.63;32.13;;;16.20;99.90;;;;;;5044642;28;20128;-81
2021/09/13 00:31:54;;;;;;;35.85;30.38;;;16.30;99.90;;;;;;5044297;28;20088;-80
2021/09/13 00:34:21;;;;;;;38.30;31.30;;;16.30;99.90;;;;;;5043705;28;20053;-81
2021/09/13 00:36:49;;;;;;;40.65;31.25;;;16.30;99.90;;;;;;5043877;28;20132;-80
2021/09/13 00:39:16;;;;;;;38.35;30.25;;;16.40;99.90;;;;;;5044718;28;20113;-81
2021/09/13 00:41:43;;;;;;;40.47;29.23;;;16.40;99.90;;;;;;5045731;28;20076;-80
2021/09/13 00:44:10;;;;;;;38.60;30.90;;;16.40;99.90;;;;;;5046812;28;20058;-81
2021/09/13 00:46:37;;;;;;;40.40;31.20;;;16.30;99.90;;;;;;5046629;28;20053;-80
2021/09/13 00:49:04;;;;;;;36.90;30.35;;;16.30;99.90;;;;;;5069116;23;20060;-79
2021/09/13 00:51:31;;;;;;;43.10;30.90;;;16.40;99.90;;;;;;4978086;28;20047;-82
2021/09/13 00:53:59;;;;;;;39.10;31.52;;;16.30;99.90;;;;;;4980524;28;20114;-82
2021/09/13 00:56:26;;;;;;;35.65;29.23;;;16.30;99.90;;;;;;4983930;28;20082;-82
2021/09/13 00:58:53;;;;;;;38.13;30.17;;;16.30;99.90;;;;;;4984867;28;20133;-82
2021/09/13 01:01:20;;;;;;;39.22;29.73;;;16.30;99.90;;;;;;4986369;28;20115;-80
2021/09/13 01:03:47;;;;;;;37.22;29.50;;;16.20;99.90;;;;;;4984373;28;20070;-82
2021/09/13 01:06:15;;;;;;;35.33;28.35;;;16.30;99.90;;;;;;4983011;28;20101;-82
2021/09/13 01:08:43;;;;;;;32.85;27.50;;;16.30;99.90;;;;;;4983632;28;20055;-83
2021/09/13 01:11:12;;;;;;;38.75;28.63;;;16.20;99.90;;;;;;4984155;28;20074;-82
2021/09/13 01:13:39;;;;;;;36.60;28.63;;;16.20;99.90;;;;;;4984056;28;20090;-83
2021/09/13 01:16:07;;;;;;;36.97;29.58;;;16.20;99.90;;;;;;4984099;28;20103;-82
2021/09/13 01:18:34;;;;;;;38.40;30.08;;;16.20;99.90;;;;;;4984533;28;20420;-84
2021/09/13 01:21:01;;;;;;;39.25;29.92;;;16.20;99.90;;;;;;4985648;28;20057;-83
2021/09/13 01:23:31;;;;;;;38.53;28.50;;;16.10;99.90;;;;;;4985411;28;20114;-84
2021/09/13 01:25:58;;;;;;;36.67;28.73;;;16.10;99.90;;;;;;4984512;28;20046;-82
2021/09/13 01:28:26;;;;;;;36.67;29.50;;;16.10;99.90;;;;;;4984117;28;20093;-82
2021/09/13 01:30:53;;;;;;;34.85;28.42;;;16.00;99.90;;;;;;4983796;28;20051;-85
2021/09/13 01:33:21;;;;;;;37.58;27.33;;;15.90;99.90;;;;;;4985970;28;20106;-83
2021/09/13 01:35:48;;;;;;;34.80;26.88;;;15.90;99.90;;;;;;4984500;28;20520;-81
2021/09/13 01:38:16;;;;;;;33.28;26.98;;;15.90;99.90;;;;;;4984099;28;20104;-82
2021/09/13 01:40:48;;;;;;;34.58;25.95;;;15.90;99.90;;;;;;4985204;28;20113;-84
2021/09/13 01:43:15;;;;;;;30.67;25.55;;;15.90;99.90;;;;;;4984365;28;20089;-83
2021/09/13 01:45:42;;;;;;;36.35;26.05;;;15.90;99.90;;;;;;4984051;28;20134;-80
2021/09/13 01:48:10;;;;;;;29.35;25.30;;;15.90;99.90;;;;;;4983788;28;20097;-82
2021/09/13 01:50:37;;;;;;;37.63;26.52;;;15.80;99.90;;;;;;4984010;28;20057;-82
2021/09/13 01:53:04;;;;;;;34.28;25.52;;;15.80;99.90;;;;;;4985187;28;20129;-84
2021/09/13 01:55:31;;;;;;;35.92;26.67;;;15.80;99.90;;;;;;4984286;28;20082;-84
2021/09/13 01:57:59;;;;;;;35.15;26.77;;;15.80;99.90;;;;;;4982513;28;20129;-83
2021/09/13 02:00:26;;;;;;;34.42;27.13;;;15.60;99.90;;;;;;4984601;28;20211;-83
2021/09/13 02:02:53;;;;;;;40.00;27.08;;;15.60;99.90;;;;;;4984893;28;20057;-83
2021/09/13 02:05:20;;;;;;;39.38;28.27;;;15.60;99.90;;;;;;4984058;28;20126;-83
2021/09/13 02:07:47;;;;;;;37.45;29.02;;;15.70;99.90;;;;;;4981120;28;20046;-81
2021/09/13 02:10:14;;;;;;;33.45;25.17;;;15.70;99.90;;;;;;4982278;28;20091;-82
2021/09/13 02:12:41;;;;;;;34.33;26.63;;;15.70;99.90;;;;;;4983144;28;20047;-83
2021/09/13 02:15:10;;;;;;;40.78;26.92;;;15.70;99.90;;;;;;4983431;28;20043;-83
2021/09/13 02:17:37;;;;;;;34.22;26.73;;;15.70;99.90;;;;;;4988529;28;20074;-84
2021/09/13 02:20:05;;;;;;;33.75;26.23;;;15.60;99.90;;;;;;4990485;28;20051;-83
2021/09/13 02:22:32;;;;;;;34.50;25.20;;;15.60;99.90;;;;;;4990724;28;20057;-83
2021/09/13 02:24:58;;;;;;;32.92;25.35;;;15.60;99.90;;;;;;4988900;28;20055;-84
2021/09/13 02:27:25;;;;;;;37.03;25.33;;;15.60;99.90;;;;;;4983466;28;20564;-84
2021/09/13 02:29:52;;;;;;;32.67;25.02;;;15.60;99.90;;;;;;4983339;28;20105;-84
2021/09/13 02:32:20;;;;;;;31.50;25.88;;;15.50;99.90;;;;;;4982979;28;20141;-84
2021/09/13 02:34:47;;;;;;;34.67;25.40;;;15.50;99.90;;;;;;4985196;28;20097;-84
2021/09/13 02:37:14;;;;;;;35.80;27.25;;;15.50;99.90;;;;;;4984456;28;20054;-84
2021/09/13 02:39:41;;;;;;;35.25;27.38;;;15.40;99.90;;;;;;4983548;28;20047;-84
2021/09/13 02:42:08;;;;;;;35.13;27.80;;;15.50;99.90;;;;;;4983475;28;20082;-84
2021/09/13 02:44:35;;;;;;;33.35;26.77;;;15.40;99.90;;;;;;4983411;28;20054;-85
2021/09/13 02:47:02;;;;;;;34.13;26.85;;;15.40;99.90;;;;;;4983205;28;20609;-85
2021/09/13 02:49:30;;;;;;;34.55;28.58;;;15.40;99.90;;;;;;4982698;28;20089;-85
2021/09/13 02:51:57;;;;;;;34.10;26.95;;;15.30;99.90;;;;;;4982630;28;20111;-85
2021/09/13 02:54:24;;;;;;;36.28;28.63;;;15.30;99.90;;;;;;4983115;28;20424;-85
2021/09/13 02:56:53;;;;;;;38.80;27.77;;;15.30;99.90;;;;;;4981990;28;20047;-85
2021/09/13 02:59:20;;;;;;;39.30;28.67;;;15.30;99.90;;;;;;4982751;28;20138;-85
2021/09/13 03:01:47;;;;;;;39.85;29.52;;;15.20;99.90;;;;;;4982183;28;20114;-85
2021/09/13 03:04:14;;;;;;;36.63;27.52;;;15.30;99.90;;;;;;4982284;28;20090;-85
2021/09/13 03:06:42;;;;;;;36.97;29.77;;;15.30;99.90;;;;;;4982126;28;20074;-85
2021/09/13 03:09:09;;;;;;;41.15;30.95;;;15.30;99.90;;;;;;4981828;28;20085;-86
2021/09/13 03:11:36;;;;;;;47.97;32.22;;;15.20;99.90;;;;;;4982867;28;20074;-84
2021/09/13 03:14:03;;;;;;;41.80;31.48;;;15.10;99.90;;;;;;4983255;28;20137;-84
2021/09/13 03:16:30;;;;;;;41.83;30.65;;;15.20;99.90;;;;;;4982607;28;20050;-84
2021/09/13 03:18:57;;;;;;;43.35;32.05;;;15.20;99.90;;;;;;4982153;28;20078;-84
2021/09/13 03:21:24;;;;;;;43.33;31.65;;;15.10;99.90;;;;;;4983040;28;20089;-83
2021/09/13 03:23:52;;;;;;;40.25;31.25;;;15.20;99.90;;;;;;4983281;28;20054;-84
2021/09/13 03:26:19;;;;;;;42.00;30.55;;;15.20;99.90;;;;;;4987303;28;20121;-84
2021/09/13 03:28:46;;;;;;;42.15;30.75;;;15.10;99.90;;;;;;4982156;28;20129;-83
2021/09/13 03:31:13;;;;;;;40.22;30.30;;;15.20;99.90;;;;;;4981671;28;20077;-84
2021/09/13 03:33:40;;;;;;;39.28;30.85;;;15.10;99.90;;;;;;4981691;28;20057;-83
2021/09/13 03:36:06;;;;;;;36.28;28.75;;;15.10;99.90;;;;;;4981141;28;20075;-85
2021/09/13 03:38:33;;;;;;;37.88;29.77;;;15.20;99.90;;;;;;4982696;28;20097;-84
2021/09/13 03:41:02;;;;;;;38.15;28.88;;;15.20;99.90;;;;;;4981827;28;20047;-84
2021/09/13 03:43:29;;;;;;;37.08;28.45;;;15.20;99.90;;;;;;4982560;28;20140;-84
2021/09/13 03:45:56;;;;;;;38.45;28.88;;;15.10;99.90;;;;;;4981765;28;20122;-84
2021/09/13 03:48:23;;;;;;;39.75;31.00;;;15.20;99.90;;;;;;4982922;28;20085;-83
2021/09/13 03:50:51;;;;;;;36.20;28.23;;;15.10;99.90;;;;;;4984134;28;20053;-83
2021/09/13 03:53:18;;;;;;;37.25;28.02;;;15.10;99.90;;;;;;4986182;28;20086;-83
2021/09/13 03:55:48;;;;;;;35.90;27.95;;;15.00;99.90;;;;;;4985213;28;20054;-82
2021/09/13 03:58:16;;;;;;;36.50;27.75;;;15.00;99.90;;;;;;4983556;28;20054;-82
2021/09/13 04:00:47;;;;;;;33.28;27.10;;;15.00;99.90;;;;;;4984695;28;20054;-82
2021/09/13 04:03:17;;;;;;;38.40;27.05;;;15.00;99.90;;;;;;4983616;28;20062;-84
2021/09/13 04:05:49;;;;;;;32.03;26.63;;;15.00;99.90;;;;;;4984303;28;20046;-83
2021/09/13 04:08:31;;;;;;;36.70;26.58;;;14.90;99.90;;;;;;4984004;28;20142;-83
2021/09/13 04:11:18;;;;;;;39.17;29.20;;;14.90;99.90;;;;;;4982925;28;20118;-82
2021/09/13 04:13:46;;;;;;;34.28;27.50;;;14.80;99.90;;;;;;4983611;28;20062;-83
2021/09/13 04:16:13;;;;;;;38.15;29.42;;;14.70;99.90;;;;;;4981960;28;20066;-81
2021/09/13 04:18:40;;;;;;;43.10;30.08;;;14.60;99.90;;;;;;4980517;28;20512;-80
2021/09/13 04:21:07;;;;;;;37.55;28.83;;;14.50;99.90;;;;;;4981780;28;20110;-81
2021/09/13 04:23:34;;;;;;;39.28;28.65;;;14.60;99.90;;;;;;4986804;28;20057;-83
2021/09/13 04:26:01;;;;;;;35.17;27.08;;;14.60;99.90;;;;;;4985768;28;20071;-83
2021/09/13 04:28:28;;;;;;;35.97;27.42;;;14.60;99.90;;;;;;4984427;28;20058;-83
2021/09/13 04:30:57;;;;;;;35.83;26.77;;;14.60;99.90;;;;;;4986786;28;20082;-83
2021/09/13 04:33:23;;;;;;;37.08;27.15;;;14.60;99.90;;;;;;4986326;28;20051;-83
2021/09/13 04:35:50;;;;;;;39.75;28.38;;;14.60;99.90;;;;;;4981781;28;20216;-82
2021/09/13 04:38:17;;;;;;;39.00;28.13;;;14.50;99.90;;;;;;4981002;28;20070;-82
2021/09/13 04:40:44;;;;;;;38.08;27.33;;;14.60;99.90;;;;;;4980003;28;20130;-82
2021/09/13 04:43:11;;;;;;;37.90;28.08;;;14.60;99.90;;;;;;4981173;28;20118;-83
2021/09/13 04:45:38;;;;;;;41.67;28.15;;;14.60;99.90;;;;;;4984763;28;20081;-83
2021/09/13 04:48:07;;;;;;;40.80;30.52;;;14.60;99.90;;;;;;4984328;28;20054;-84
2021/09/13 04:50:33;;;;;;;46.72;31.73;;;14.50;99.90;;;;;;4983728;28;20047;-83
2021/09/13 04:53:00;;;;;;;41.45;29.75;;;14.50;99.90;;;;;;4983144;28;20054;-82
2021/09/13 04:55:27;;;;;;;40.28;30.33;;;14.50;99.90;;;;;;4982805;28;20544;-82
2021/09/13 04:57:54;;;;;;;42.53;30.30;;;14.50;99.90;;;;;;4984269;28;20115;-81
2021/09/13 05:00:22;;;;;;;49.50;32.83;;;14.50;99.90;;;;;;4983370;28;20493;-81
2021/09/13 05:02:49;;;;;;;47.00;32.33;;;14.50;99.90;;;;;;4982809;28;20051;-80
2021/09/13 05:05:18;;;;;;;50.70;33.58;;;14.50;99.90;;;;;;4982210;28;20111;-82
2021/09/13 05:07:45;;;;;;;49.25;33.63;;;14.50;99.90;;;;;;4982952;28;20085;-81
2021/09/13 05:10:12;;;;;;;56.47;35.50;;;14.50;99.90;;;;;;4978855;28;20093;-81
2021/09/13 05:12:39;;;;;;;51.63;35.45;;;14.60;99.90;;;;;;4982360;28;20087;-81
2021/09/13 05:15:07;;;;;;;56.08;34.42;;;14.60;99.90;;;;;;4982161;28;20087;-81
2021/09/13 05:17:34;;;;;;;57.03;34.90;;;14.50;99.90;;;;;;4981416;28;20101;-81
2021/09/13 05:20:00;;;;;;;46.80;33.40;;;14.60;99.90;;;;;;4981920;28;20137;-81
2021/09/13 05:22:29;;;;;;;49.53;32.58;;;14.60;99.90;;;;;;4983448;28;20085;-81
2021/09/13 05:24:56;;;;;;;47.25;34.38;;;14.60;99.90;;;;;;4986229;28;20093;-82
2021/09/13 05:27:23;;;;;;;44.28;31.08;;;14.60;99.90;;;;;;4976102;28;20134;-79
2021/09/13 05:30:03;;;;;;;42.42;31.05;;;14.60;99.90;;;;;;4983561;28;20134;-82
2021/09/13 05:32:33;;;;;;;46.42;31.98;;;14.70;99.90;;;;;;4985061;28;20054;-81
2021/09/13 05:35:03;;;;;;;44.72;31.90;;;14.70;99.90;;;;;;4985277;28;20117;-85
2021/09/13 05:37:37;;;;;;;48.15;31.38;;;14.70;99.90;;;;;;4983853;28;20051;-84
2021/09/13 05:40:06;;;;;;;44.00;28.70;;;14.70;99.90;;;;;;4983272;28;20070;-83
2021/09/13 05:42:33;;;;;;;38.85;28.52;;;14.80;99.90;;;;;;4982156;28;20634;-84
2021/09/13 05:45:00;;;;;;;43.72;28.35;;;14.80;99.90;;;;;;4983626;28;20078;-83
2021/09/13 05:47:27;;;;;;;73.57;33.42;;;14.80;99.90;;;;;;4982260;28;20077;-84
2021/09/13 05:49:54;;;;;;;50.30;34.08;;;14.80;99.90;;;;;;4970162;28;20058;-84
2021/09/13 05:52:27;;;;;;;58.80;33.90;;;14.80;99.90;;;;;;4963807;28;20055;-85
2021/09/13 05:58:26;;;;;;;80.25;33.85;;;14.70;99.90;;;;;;4950249;29;20059;-84
2021/09/13 06:04:32;;;;;;;71.03;34.17;;;14.60;99.90;;;;;;4919178;29;20060;-85
2021/09/13 06:07:41;;;;;;;103.40;33.47;;;14.60;99.90;;;;;;4921999;29;20063;-84
2021/09/13 06:14:07;;;;;;;61.65;30.27;;;14.80;99.90;;;;;;4937332;28;20111;-85
2021/09/13 06:17:17;;;;;;;59.67;28.20;;;14.90;99.90;;;;;;4925115;28;20047;-85
2021/09/13 06:19:47;;;;;;;56.85;27.38;;;15.00;99.90;;;;;;4981661;28;20058;-85
2021/09/13 06:22:41;;;;;;;;;;;;;;;;;;;;;
2021/09/13 06:25:31;;;;;;;57.05;26.95;;;15.10;99.90;;;;;;4955291;28;20066;-81
2021/09/13 06:31:05;;;;;;;49.15;27.25;;;15.20;99.90;;;;;;4966144;28;20065;-82
2021/09/13 06:34:15;;;;;;;46.92;26.48;;;15.20;99.90;;;;;;4982781;28;20109;-84
2021/09/13 06:36:44;;;;;;;38.10;26.17;;;15.20;99.90;;;;;;4981356;28;20053;-85
2021/09/13 06:39:11;;;;;;;41.78;27.38;;;15.30;99.90;;;;;;4982121;28;20109;-85
2021/09/13 06:41:38;;;;;;;39.33;26.05;;;15.40;99.90;;;;;;4981765;28;20076;-84
2021/09/13 06:44:06;;;;;;;38.85;26.40;;;15.50;99.90;;;;;;4981051;28;20114;-83
2021/09/13 06:46:42;;;;;;;34.13;25.65;;;15.60;99.90;;;;;;4970861;28;20050;-81
2021/09/13 06:49:11;;;;;;;28.13;23.67;;;15.70;99.90;;;;;;4971971;28;20110;-81
2021/09/13 06:51:46;;;;;;;28.90;23.70;;;15.80;99.90;;;;;;5008277;23;20109;-80
2021/09/13 06:54:17;;;;;;;28.92;23.35;;;15.80;99.90;;;;;;5002146;28;20073;-81
2021/09/13 06:56:48;;;;;;;30.27;23.58;;;15.90;99.90;;;;;;5001692;28;20218;-80
2021/09/13 06:59:24;;;;;;;28.27;22.63;;;16.00;99.90;;;;;;4999350;28;20065;-80
2021/09/13 07:01:56;;;;;;;35.60;22.50;;;16.20;99.90;;;;;;4989235;28;20046;-81
2021/09/13 07:04:24;;;;;;;28.15;21.63;;;16.40;99.90;;;;;;4989641;28;20053;-80
2021/09/13 07:06:53;;;;;;;27.95;21.08;;;16.70;99.90;;;;;;4994723;28;20112;-82
2021/09/13 07:09:20;;;;;;;27.10;18.77;;;17.00;99.90;;;;;;4990260;28;20472;-81
2021/09/13 07:11:47;;;;;;;18.80;15.88;;;17.50;99.90;;;;;;5000444;28;20055;-80
2021/09/13 07:14:21;;;;;;;19.25;15.45;;;18.10;99.90;;;;;;4987551;28;20051;-81
2021/09/13 07:16:48;;;;;;;20.77;16.25;;;18.60;99.90;;;;;;4990235;28;20139;-81
2021/09/13 07:19:15;;;;;;;21.90;15.27;;;18.90;99.90;;;;;;4981195;28;20110;-81
2021/09/13 07:21:42;;;;;;;19.02;14.95;;;19.10;99.90;;;;;;4980483;28;20078;-81
2021/09/13 07:24:10;;;;;;;23.95;16.08;;;19.10;99.90;;;;;;4981669;28;20086;-81
2021/09/13 07:26:37;;;;;;;21.83;16.42;;;19.40;99.90;;;;;;4981114;28;20105;-81
2021/09/13 07:29:04;;;;;;;17.13;13.80;;;19.50;99.90;;;;;;4981963;28;20114;-82
2021/09/13 07:31:31;;;;;;;20.48;13.85;;;19.40;99.90;;;;;;4982320;28;20085;-80
2021/09/13 07:33:58;;;;;;;16.77;12.90;;;19.40;99.90;;;;;;4984091;28;20061;-82
2021/09/13 07:36:24;;;;;;;19.73;13.32;;;19.50;99.90;;;;;;4983281;28;20051;-81
2021/09/13 07:38:51;;;;;;;19.45;13.70;;;19.60;99.90;;;;;;4984624;28;20061;-81
2021/09/13 07:41:20;;;;;;;19.63;13.18;;;19.90;99.90;;;;;;4984338;28;20512;-81
2021/09/13 07:43:48;;;;;;;19.48;13.55;;;20.00;99.90;;;;;;4983472;28;20046;-82
2021/09/13 07:46:14;;;;;;;16.73;12.93;;;19.90;99.90;;;;;;4983694;28;20050;-81
2021/09/13 07:48:41;;;;;;;16.48;13.48;;;20.00;99.90;;;;;;4982348;28;20047;-82
2021/09/13 07:51:08;;;;;;;16.88;13.45;;;20.20;99.90;;;;;;4981306;28;20061;-81
2021/09/13 07:53:35;;;;;;;20.55;13.93;;;20.20;99.90;;;;;;4982645;28;20058;-81
2021/09/13 07:56:02;;;;;;;22.40;12.95;;;20.40;99.90;;;;;;4982204;28;20115;-81
2021/09/13 07:58:30;;;;;;;18.27;13.93;;;20.70;99.90;;;;;;4984205;28;20114;-80
2021/09/13 08:00:57;;;;;;;17.10;12.57;;;20.90;99.90;;;;;;4989378;28;20069;-81
2021/09/13 08:03:25;;;;;;;21.40;13.57;;;21.10;99.90;;;;;;4988385;28;20058;-81
2021/09/13 08:05:52;;;;;;;17.27;12.93;;;21.40;99.90;;;;;;4984928;28;20074;-81
2021/09/13 08:08:19;;;;;;;23.27;14.70;;;21.50;99.90;;;;;;4985307;28;20121;-80
2021/09/13 08:10:45;;;;;;;20.70;13.18;;;21.50;99.90;;;;;;4985680;28;20090;-81
2021/09/13 08:13:12;;;;;;;19.42;13.95;;;21.40;99.90;;;;;;4985717;28;20051;-80
2021/09/13 08:15:40;;;;;;;17.85;14.57;;;21.10;99.90;;;;;;4993010;28;20062;-81
2021/09/13 08:18:07;;;;;;;17.73;15.23;;;21.20;99.90;;;;;;4992650;28;20110;-81
2021/09/13 08:20:34;;;;;;;22.63;14.95;;;21.00;99.90;;;;;;4993325;28;20078;-80
2021/09/13 08:23:01;;;;;;;22.30;16.63;;;21.00;99.90;;;;;;4992648;28;20170;-81
2021/09/13 08:25:29;;;;;;;18.27;15.93;;;20.60;99.90;;;;;;4993335;28;20054;-81
2021/09/13 08:27:56;;;;;;;23.00;16.40;;;20.60;99.90;;;;;;4992708;28;20047;-81
2021/09/13 08:30:22;;;;;;;22.13;15.27;;;20.50;99.90;;;;;;4993150;28;20110;-81
2021/09/13 08:32:51;;;;;;;20.30;16.08;;;20.60;99.90;;;;;;4993041;28;20050;-80
2021/09/13 08:35:18;;;;;;;19.38;15.40;;;21.00;99.90;;;;;;4994208;28;20074;-80
2021/09/13 08:37:47;;;;;;;20.13;15.70;;;21.30;99.90;;;;;;4993434;28;20051;-81
2021/09/13 08:40:14;;;;;;;21.63;16.15;;;21.80;99.90;;;;;;4991549;28;20055;-80
2021/09/13 08:42:47;;;;;;;17.73;15.80;;;22.10;99.90;;;;;;4991883;28;20070;-82
2021/09/13 08:45:20;;;;;;;21.52;16.73;;;22.10;99.90;;;;;;4989604;28;20058;-80
2021/09/13 08:47:58;;;;;;;24.75;17.25;;;22.20;99.90;;;;;;4987459;28;20050;-80
2021/09/13 08:50:34;;;;;;;20.77;17.27;;;22.30;99.90;;;;;;4988692;28;20051;-80
2021/09/13 08:53:02;;;;;;;21.90;17.70;;;22.30;99.90;;;;;;4992847;28;20051;-80
2021/09/13 08:55:29;;;;;;;23.05;17.30;;;22.40;99.90;;;;;;4990033;28;20428;-80
2021/09/13 08:57:58;;;;;;;24.13;18.15;;;22.50;99.90;;;;;;4989988;28;20596;-80
2021/09/13 09:00:25;;;;;;;25.10;17.80;;;22.60;99.90;;;;;;4990110;28;20053;-82
2021/09/13 09:02:54;;;;;;;26.60;20.60;;;22.60;99.90;;;;;;4990621;28;20066;-81
2021/09/13 09:05:21;;;;;;;22.60;20.00;;;22.60;99.90;;;;;;4990114;28;20074;-80
2021/09/13 09:07:52;;;;;;;24.67;22.00;;;22.70;99.90;;;;;;4990523;28;20047;-80
2021/09/13 09:10:25;;;;;;;29.45;20.85;;;22.30;99.90;;;;;;4990828;28;20051;-80
2021/09/13 09:13:01;;;;;;;28.70;21.35;;;22.20;99.90;;;;;;4990976;28;20073;-80
2021/09/13 09:15:29;;;;;;;27.05;21.52;;;22.00;99.90;;;;;;4990795;28;20114;-79
2021/09/13 09:17:58;;;;;;;27.77;22.58;;;22.00;99.90;;;;;;4989867;28;20074;-79
2021/09/13 09:20:26;;;;;;;33.08;24.15;;;21.90;99.90;;;;;;4990425;28;20082;-80
2021/09/13 09:23:05;;;;;;;30.35;23.23;;;22.00;99.90;;;;;;4989757;28;20050;-80
2021/09/13 09:25:35;;;;;;;38.15;24.77;;;21.70;99.90;;;;;;4990039;28;20051;-80
2021/09/13 09:28:10;;;;;;;33.97;23.67;;;21.30;99.90;;;;;;4988603;28;20074;-79
2021/09/13 09:30:38;;;;;;;32.25;25.05;;;21.20;99.90;;;;;;4990791;28;20509;-79
2021/09/13 09:33:09;;;;;;;31.58;24.30;;;21.00;99.90;;;;;;4990451;28;20074;-79
2021/09/13 09:35:44;;;;;;;32.80;25.00;;;21.00;99.90;;;;;;4990068;28;20600;-80
2021/09/13 09:38:31;;;;;;;31.38;23.27;;;20.90;99.90;;;;;;4989665;28;20051;-79
2021/09/13 09:41:08;;;;;;;30.80;24.58;;;21.00;99.90;;;;;;4990321;28;20062;-79
2021/09/13 09:43:55;;;;;;;40.72;27.38;;;21.10;99.90;;;;;;4990461;28;20421;-80
2021/09/13 09:46:23;;;;;;;32.30;26.67;;;21.20;99.90;;;;;;4989293;28;20115;-79
2021/09/13 09:48:50;;;;;;;42.13;30.33;;;21.20;99.90;;;;;;4988293;28;20042;-79
2021/09/13 09:51:28;;;;;;;40.33;31.48;;;21.20;99.90;;;;;;4981272;28;20098;-80
2021/09/13 09:53:58;;;;;;;43.42;31.63;;;21.10;99.90;;;;;;4979489;28;20096;-80
2021/09/13 09:56:27;;;;;;;46.05;34.90;;;21.00;99.90;;;;;;4986809;28;20073;-80
2021/09/13 09:59:01;;;;;;;39.90;29.55;;;20.90;99.90;;;;;;4985670;28;20126;-80
2021/09/13 10:01:36;;;;;;;36.72;26.98;;;21.00;99.90;;;;;;4986815;28;20074;-80
2021/09/13 10:04:20;;;;;;;37.95;28.23;;;21.20;99.90;;;;;;4986875;28;20429;-80
2021/09/13 10:06:50;;;;;;;34.10;28.02;;;21.10;99.90;;;;;;4988178;28;20078;-80
2021/09/13 10:09:19;;;;;;;39.85;30.80;;;21.10;99.90;;;;;;4988099;28;20077;-81
2021/09/13 10:11:48;;;;;;;37.47;28.60;;;21.00;99.90;;;;;;4989100;28;20055;-81
2021/09/13 10:14:17;;;;;;;39.15;30.75;;;21.00;99.90;;;;;;4988693;28;20085;-81
2021/09/13 10:16:49;;;;;;;39.40;29.73;;;21.20;99.90;;;;;;4989791;28;20050;-79
2021/09/13 10:19:16;;;;;;;37.20;27.33;;;21.20;99.90;;;;;;4991265;28;20070;-80
2021/09/13 10:21:43;;;;;;;40.47;28.67;;;21.40;99.90;;;;;;4991539;28;20085;-80
2021/09/13 10:24:35;;;;;;;;;;;;;;;;;;;;;
2021/09/13 10:30:14;;;;;;;;;;;21.40;99.90;;;;;;4978560;28;20058;-81
2021/09/13 10:33:01;;;;;;;39.60;30.05;;;21.30;99.90;;;;;;4991209;28;19942;-80
2021/09/13 10:36:13;;;;;;;37.28;29.15;;;21.50;99.90;;;;;;4992076;28;20051;-81
2021/09/13 10:38:59;;;;;;;36.80;29.92;;;21.70;99.90;;;;;;4992559;28;20043;-81
2021/09/13 10:42:11;;;;;;;40.20;28.92;;;21.80;99.90;;;;;;4990157;28;20057;-81
2021/09/13 10:45:38;;;;;;;39.90;27.73;;;21.60;99.90;;;;;;4989485;28;20055;-81
2021/09/13 10:48:08;;;;;;;34.88;28.10;;;21.40;99.90;;;;;;4947407;29;20048;-79
2021/09/13 10:50:53;;;;;;;36.90;27.80;;;21.30;99.90;;;;;;4943617;29;20054;-79
2021/09/13 10:57:24;;;;;;;33.15;25.45;;;21.30;99.90;;;;;;4947907;28;20040;-79
2021/09/13 11:06:45;;;;;;;31.13;23.77;;;22.10;99.90;;;;;;4985664;28;20042;-80
2021/09/13 11:09:59;;;;;;;;;;;;;;;;;;;;;
2021/09/13 11:12:47;;;;;;;29.38;22.70;;;22.30;99.90;;;;;;4986725;28;20082;-80
2021/09/13 11:15:16;;;;;;;31.77;24.40;;;22.20;99.90;;;;;;4986800;28;20082;-80
2021/09/13 11:17:54;;;;;;;28.20;23.60;;;22.10;99.90;;;;;;4987697;28;20074;-80
2021/09/13 11:20:28;;;;;;;25.55;20.70;;;22.00;99.90;;;;;;4987773;28;20077;-80
2021/09/13 11:22:56;;;;;;;25.83;21.20;;;22.10;99.90;;;;;;4988589;28;20034;-80
2021/09/13 11:25:25;;;;;;;25.05;20.80;;;22.20;99.90;;;;;;4987204;28;20070;-80
2021/09/13 11:28:00;;;;;;;27.35;19.08;;;22.30;99.90;;;;;;4989005;28;20054;-80
2021/09/13 11:30:44;;;;;;;19.08;16.10;;;22.30;99.90;;;;;;4989009;28;20160;-80
2021/09/13 11:33:11;;;;;;;20.35;15.90;;;22.30;99.90;;;;;;4989047;28;20122;-80
2021/09/13 11:35:39;;;;;;;22.85;16.45;;;22.60;99.90;;;;;;4989170;28;20146;-81
2021/09/13 11:38:05;;;;;;;24.05;17.88;;;22.80;99.90;;;;;;4991125;28;20129;-80
2021/09/13 11:40:33;;;;;;;20.45;15.30;;;22.90;99.90;;;;;;4990464;28;20054;-80
2021/09/13 11:43:09;;;;;;;18.17;13.70;;;23.10;99.90;;;;;;4991518;28;20114;-80
2021/09/13 11:45:36;;;;;;;18.33;13.18;;;23.30;99.90;;;;;;4987828;28;20135;-81
2021/09/13 11:52:03;;;;;;;19.40;12.85;;;23.20;99.90;;;;;;4946980;29;20127;-80
2021/09/13 11:54:59;;;;;;;;;;;;;;;;;;;;;
2021/09/13 11:58:01;;;;;;;21.42;12.68;;;23.20;99.90;;;;;;4987544;28;20058;-79
2021/09/13 12:07:44;;;;;;;20.67;15.55;;;23.00;99.90;;;;;;4985955;28;20058;-80
2021/09/13 12:19:25;;;;;;;16.48;13.68;;;22.80;99.90;;;;;;4983353;28;20422;-81
2021/09/13 12:22:12;;;;;;;18.73;14.63;;;22.70;99.90;;;;;;4985163;28;20050;-80
2021/09/13 12:32:03;;;;;;;18.30;14.45;;;23.20;99.90;;;;;;4914409;29;20207;-81
2021/09/13 12:41:02;;;;;;;23.70;18.52;;;23.10;99.90;;;;;;4974612;28;20090;-80
2021/09/13 12:43:44;;;;;;;22.83;18.52;;;23.10;99.90;;;;;;4981949;28;20063;-80
2021/09/13 12:46:36;;;;;;;;;;;22.80;99.90;;;;;;4980189;28;20054;-80
2021/09/13 12:49:12;;;;;;;21.55;16.73;;;22.80;99.90;;;;;;4979418;28;19946;-80
2021/09/13 12:51:39;;;;;;;22.88;17.77;;;22.80;99.90;;;;;;5004479;23;20046;-78
2021/09/13 12:54:09;;;;;;;19.77;17.63;;;22.90;99.90;;;;;;4997253;28;20074;-78
2021/09/13 12:56:44;;;;;;;18.95;16.95;;;22.70;99.90;;;;;;4996909;28;20496;-79
2021/09/13 12:59:31;;;;;;;21.83;17.95;;;22.70;99.90;;;;;;4995532;28;20131;-78
2021/09/13 13:02:30;;;;;;;19.35;16.55;;;22.60;99.90;;;;;;4998073;28;20054;-78
2021/09/13 13:04:58;;;;;;;20.23;17.50;;;22.70;99.90;;;;;;4996121;28;20117;-78
2021/09/13 13:07:25;;;;;;;19.88;17.13;;;22.60;99.90;;;;;;4995578;28;20426;-78
2021/09/13 13:09:52;;;;;;;20.00;16.80;;;22.70;99.90;;;;;;4995999;28;20098;-78
2021/09/13 13:12:24;;;;;;;19.38;17.33;;;22.90;99.90;;;;;;4997135;28;20086;-78
2021/09/13 13:14:57;;;;;;;20.10;17.90;;;23.00;99.90;;;;;;4996804;28;20637;-78
2021/09/13 13:20:26;;;;;;;19.77;16.55;;;23.00;99.90;;;;;;4993350;28;20503;-79
2021/09/13 13:23:03;;;;;;;21.45;18.40;;;23.10;99.90;;;;;;4996406;28;20125;-78
2021/09/13 13:25:30;;;;;;;22.05;18.23;;;22.90;99.90;;;;;;4997129;28;20054;-78
2021/09/13 13:28:03;;;;;;;20.13;16.75;;;22.80;99.90;;;;;;4997547;28;20109;-78
2021/09/13 13:30:30;;;;;;;20.20;17.65;;;22.80;99.90;;;;;;4997769;28;20474;-79
2021/09/13 13:33:05;;;;;;;20.10;17.90;;;23.00;99.90;;;;;;4996125;28;20487;-78
2021/09/13 13:35:40;;;;;;;20.13;15.98;;;23.00;99.90;;;;;;4996439;28;20058;-79
2021/09/13 13:38:09;;;;;;;17.35;15.32;;;23.00;99.90;;;;;;4996157;28;20097;-78
2021/09/13 13:40:37;;;;;;;17.58;14.85;;;23.10;99.90;;;;;;4996248;28;20120;-78
2021/09/13 13:43:06;;;;;;;19.80;17.48;;;23.20;99.90;;;;;;4995191;28;20057;-76
2021/09/13 13:45:33;;;;;;;17.05;15.30;;;23.20;99.90;;;;;;4995420;28;20078;-77
2021/09/13 13:48:02;;;;;;;17.15;14.52;;;23.30;99.90;;;;;;4995190;28;20082;-77
2021/09/13 13:50:33;;;;;;;14.30;12.80;;;23.20;99.90;;;;;;4995219;28;20046;-78
2021/09/13 13:53:02;;;;;;;21.73;16.38;;;23.30;99.90;;;;;;4995898;28;20058;-77
2021/09/13 13:55:29;;;;;;;17.95;14.82;;;23.20;99.90;;;;;;4995755;28;20116;-77